Portada
METAR-TAF:

METAR-TAF

Aeroports :

Aeroport Suvarnabhumi

Bangkok-Suvarnabhumi, Tailàndia

latitud: 13-40-52N, longitud: 100-44-50E, altitud: 2 m

Observació

L'informe es va fer fa 30 minuts, a les 02:00 UTC
Vent 9 kt del Est/Nord-Est, variant entre Nord/Nord-Est i Est/Sud-Est
Temperatura 28°C
Humitat 62%
Pressió 1014 hPa
Visibilitat 10 km o més
Escasses núvols a una alçada de 3000 ft

METAR: VTBS 150200Z 07009KT 030V110 9999 FEW030 28/20 Q1014 NOSIG

Hora: 09:30 (02:30 UTC)

Pronòstic

L'informe es va fer fa 3 hores i 30 minuts, a les 23:00 UTC
Pronòstic vàlid del 15 a les 00 UTC al 16 a les 06 UTC
Vent 8 kt del Nord-Est
Visibilitat: 9000 m
Escasses núvols a una alçada de 2000 ft
Núvols disperses a una alçada de 10000 ft

TAF: VTBS 142300Z 1500/1606 05008KT 9000 FEW020 SCT100

Observacions i pronòstics meteorològics de més de 4000 aeroports (METAR i TAF).

Les estacions disponibles són els punts grocs i vermells al mapa.

Posi el ratolí al punt desitjat per veure el nom de l'estació.

Feu clic per veure les observacions i els pronòstics meteorològics.

Per canviar el mapa: feu clic els botons verds amb una creu de color negre per apropar; al botó verd amb un guió per allunyar la imatge; o en les fletxes verdes per a mapes adjacents.


METAR-TAF: